Time;durP1;ratioP1;P1;durP2;ratioP2;P2;SDS_P1;SDS_P2;PMS_P1;PMS_P2;Temp;Humidity;BMP_temperature;BMP_pressure;BME280_temperature;BME280_humidity;BME280_pressure;Samples;Min_cycle;Max_cycle;Signal;HPM_P1;HPM_P2
2023/12/06 00:01:24;;;;;;;37.45;23.15;;;1.10;99.90;;;;;;5050569;28;20116;-81
2023/12/06 00:03:49;;;;;;;40.08;24.23;;;1.10;99.90;;;;;;5045594;28;20118;-81
2023/12/06 00:06:15;;;;;;;36.78;22.77;;;1.10;99.90;;;;;;5037934;28;20033;-81
2023/12/06 00:08:41;;;;;;;37.17;23.73;;;1.00;99.90;;;;;;5064989;28;20075;-80
2023/12/06 00:11:06;;;;;;;36.28;22.00;;;1.00;99.90;;;;;;5033526;28;20396;-81
2023/12/06 00:13:32;;;;;;;36.05;22.58;;;1.00;99.90;;;;;;5027845;28;20037;-80
2023/12/06 00:15:58;;;;;;;36.65;22.88;;;1.10;99.90;;;;;;5018379;28;20504;-80
2023/12/06 00:18:23;;;;;;;35.78;22.08;;;1.00;99.90;;;;;;5037197;28;20041;-80
2023/12/06 00:20:49;;;;;;;38.80;22.88;;;1.00;99.90;;;;;;5036714;28;20579;-80
2023/12/06 00:23:14;;;;;;;37.00;22.48;;;1.10;99.90;;;;;;5040183;28;20021;-80
2023/12/06 00:25:40;;;;;;;36.88;23.80;;;1.10;99.90;;;;;;5037047;28;20041;-80
2023/12/06 00:28:06;;;;;;;36.60;21.70;;;1.10;99.90;;;;;;5051007;28;20037;-81
2023/12/06 00:30:32;;;;;;;35.67;22.15;;;1.10;99.90;;;;;;5053410;28;20048;-80
2023/12/06 00:32:57;;;;;;;38.08;22.90;;;1.10;99.90;;;;;;5052646;28;20036;-80
2023/12/06 00:35:23;;;;;;;35.10;21.88;;;1.10;99.90;;;;;;5069148;28;20063;-80
2023/12/06 00:37:48;;;;;;;36.53;23.25;;;1.10;99.90;;;;;;5050861;28;20041;-80
2023/12/06 00:40:14;;;;;;;36.25;20.77;;;1.10;99.90;;;;;;5016949;28;20048;-80
2023/12/06 00:42:40;;;;;;;37.15;23.30;;;1.10;99.90;;;;;;5037962;28;20028;-80
2023/12/06 00:45:06;;;;;;;37.88;23.20;;;1.20;99.90;;;;;;5036815;28;20389;-80
2023/12/06 00:47:32;;;;;;;35.20;22.35;;;1.10;99.90;;;;;;5052483;28;20489;-80
2023/12/06 00:49:58;;;;;;;35.25;22.17;;;1.10;99.90;;;;;;5067627;28;20501;-80
2023/12/06 00:52:23;;;;;;;37.70;23.85;;;1.20;99.90;;;;;;5035720;28;20045;-80
2023/12/06 00:54:49;;;;;;;36.60;22.30;;;1.20;99.90;;;;;;5052830;28;20051;-80
2023/12/06 00:57:15;;;;;;;38.92;25.13;;;1.20;99.90;;;;;;5036690;28;20083;-80
2023/12/06 00:59:41;;;;;;;37.47;23.90;;;1.20;99.90;;;;;;5050895;28;20049;-80
2023/12/06 01:02:07;;;;;;;35.10;22.27;;;1.20;99.90;;;;;;5022152;28;20099;-81
2023/12/06 01:04:36;;;;;;;37.55;22.20;;;1.20;99.90;;;;;;5035542;28;20044;-80
2023/12/06 01:07:02;;;;;;;35.30;21.75;;;1.20;99.90;;;;;;5036288;28;20040;-81
2023/12/06 01:09:28;;;;;;;39.97;24.17;;;1.20;99.90;;;;;;5036111;28;20045;-80
2023/12/06 01:11:53;;;;;;;39.22;23.75;;;1.20;99.90;;;;;;5035424;28;20033;-80
2023/12/06 01:14:19;;;;;;;40.58;23.63;;;1.20;99.90;;;;;;5052759;28;20068;-80
2023/12/06 01:16:45;;;;;;;38.90;22.73;;;1.20;99.90;;;;;;5052555;28;20051;-80
2023/12/06 01:19:10;;;;;;;36.85;21.83;;;1.20;99.90;;;;;;5035266;28;20490;-80
2023/12/06 01:21:36;;;;;;;36.95;23.67;;;1.30;99.90;;;;;;5067125;28;20037;-80
2023/12/06 01:24:02;;;;;;;36.63;23.77;;;1.30;99.90;;;;;;5035292;28;20040;-80
2023/12/06 01:26:27;;;;;;;38.78;23.25;;;1.30;99.90;;;;;;5052380;28;20045;-80
2023/12/06 01:28:53;;;;;;;38.00;22.05;;;1.30;99.90;;;;;;5051747;28;20041;-80
2023/12/06 01:31:18;;;;;;;37.40;23.35;;;1.30;99.90;;;;;;5051563;28;20490;-80
2023/12/06 01:33:44;;;;;;;39.25;24.17;;;1.30;99.90;;;;;;5052065;28;20048;-80
2023/12/06 01:36:10;;;;;;;37.72;23.98;;;1.30;99.90;;;;;;5035581;28;20037;-80
2023/12/06 01:38:35;;;;;;;34.45;22.27;;;1.30;99.90;;;;;;5051510;28;20396;-80
2023/12/06 01:41:02;;;;;;;35.38;22.65;;;1.30;99.90;;;;;;5035654;28;20041;-80
2023/12/06 01:43:27;;;;;;;37.25;23.63;;;1.30;99.90;;;;;;5033903;28;20119;-80
2023/12/06 01:45:53;;;;;;;38.20;22.77;;;1.30;99.90;;;;;;5051189;28;20474;-80
2023/12/06 01:48:21;;;;;;;40.05;23.85;;;1.30;99.90;;;;;;5034793;28;20048;-80
2023/12/06 01:50:48;;;;;;;37.72;23.73;;;1.30;99.90;;;;;;5068734;28;20047;-80
2023/12/06 01:53:14;;;;;;;38.63;22.98;;;1.30;99.90;;;;;;5066494;28;20047;-80
2023/12/06 01:55:40;;;;;;;41.00;23.65;;;1.30;99.90;;;;;;5031985;28;20045;-80
2023/12/06 01:58:06;;;;;;;35.72;22.08;;;1.40;99.90;;;;;;5057220;28;20039;-80
2023/12/06 02:00:32;;;;;;;42.22;24.02;;;1.40;99.90;;;;;;5034657;28;20089;-80
2023/12/06 02:02:58;;;;;;;39.25;22.98;;;1.40;99.90;;;;;;5034559;28;20071;-80
2023/12/06 02:05:24;;;;;;;40.40;23.77;;;1.40;99.90;;;;;;5052089;28;20440;-80
2023/12/06 02:07:50;;;;;;;40.60;22.85;;;1.40;99.90;;;;;;5051346;28;20037;-80
2023/12/06 02:10:16;;;;;;;44.80;24.00;;;1.40;99.90;;;;;;5051018;28;20041;-80
2023/12/06 02:12:42;;;;;;;36.80;23.40;;;1.40;99.90;;;;;;5033397;28;20102;-80
2023/12/06 02:15:08;;;;;;;40.20;23.13;;;1.40;99.90;;;;;;5051637;28;20404;-80
2023/12/06 02:17:34;;;;;;;38.33;23.05;;;1.30;99.90;;;;;;5050790;28;20131;-80
2023/12/06 02:20:01;;;;;;;40.10;22.67;;;1.40;99.90;;;;;;5051066;28;20492;-80
2023/12/06 02:22:27;;;;;;;37.17;24.15;;;1.40;99.90;;;;;;5035409;28;20468;-80
2023/12/06 02:24:56;;;;;;;40.95;23.27;;;1.40;99.90;;;;;;5050971;28;20099;-80
2023/12/06 02:27:22;;;;;;;36.25;21.30;;;1.40;99.90;;;;;;5049822;28;20175;-80
2023/12/06 02:29:48;;;;;;;37.22;20.90;;;1.40;99.90;;;;;;5051656;28;20485;-80
2023/12/06 02:32:13;;;;;;;39.20;23.77;;;1.40;99.90;;;;;;5050019;28;20072;-80
2023/12/06 02:34:40;;;;;;;38.08;21.95;;;1.40;99.90;;;;;;5033126;28;20548;-80
2023/12/06 02:37:10;;;;;;;35.15;21.15;;;1.40;99.90;;;;;;5032158;28;20400;-80
2023/12/06 02:39:40;;;;;;;33.60;20.27;;;1.40;99.90;;;;;;5046531;28;20120;-80
2023/12/06 02:42:06;;;;;;;36.30;22.05;;;1.40;99.90;;;;;;5031793;28;20052;-80
2023/12/06 02:44:32;;;;;;;36.53;21.73;;;1.40;99.90;;;;;;5050456;28;20029;-80
2023/12/06 02:46:58;;;;;;;34.80;21.45;;;1.40;99.90;;;;;;5049509;28;20041;-80
2023/12/06 02:49:23;;;;;;;36.83;21.17;;;1.40;99.90;;;;;;5050088;28;20074;-80
2023/12/06 02:51:49;;;;;;;35.55;21.55;;;1.40;99.90;;;;;;5048757;28;20041;-80
2023/12/06 02:54:15;;;;;;;37.00;22.10;;;1.40;99.90;;;;;;5051539;28;20056;-80
2023/12/06 02:56:40;;;;;;;34.92;20.15;;;1.40;99.90;;;;;;5033702;28;20037;-80
2023/12/06 02:59:06;;;;;;;33.95;19.60;;;1.40;99.90;;;;;;5032793;28;20125;-80
2023/12/06 03:01:31;;;;;;;34.03;19.30;;;1.40;99.90;;;;;;5050432;28;20037;-80
2023/12/06 03:03:57;;;;;;;34.45;20.25;;;1.40;99.90;;;;;;5050583;28;20485;-80
2023/12/06 03:06:22;;;;;;;31.20;19.80;;;1.40;99.90;;;;;;5033912;28;20064;-80
2023/12/06 03:08:48;;;;;;;33.45;19.90;;;1.40;99.90;;;;;;5056857;28;20040;-80
2023/12/06 03:11:14;;;;;;;33.70;20.55;;;1.40;99.90;;;;;;5035856;28;20041;-79
2023/12/06 03:13:39;;;;;;;30.45;19.15;;;1.40;99.90;;;;;;5053542;28;20033;-80
2023/12/06 03:16:05;;;;;;;31.15;18.60;;;1.40;99.90;;;;;;5038224;28;20055;-80
2023/12/06 03:18:31;;;;;;;31.73;19.27;;;1.40;99.90;;;;;;5053325;28;20132;-79
2023/12/06 03:20:57;;;;;;;30.25;18.90;;;1.40;99.90;;;;;;5037100;28;20068;-79
2023/12/06 03:23:22;;;;;;;28.10;18.40;;;1.40;99.90;;;;;;5043939;28;20406;-79
2023/12/06 03:25:51;;;;;;;31.60;19.45;;;1.40;99.90;;;;;;5034844;28;20041;-80
2023/12/06 03:28:16;;;;;;;27.80;17.65;;;1.40;99.90;;;;;;5050890;28;20500;-79
2023/12/06 03:30:42;;;;;;;27.75;17.23;;;1.40;99.90;;;;;;5052772;28;20051;-79
2023/12/06 03:33:08;;;;;;;31.25;19.20;;;1.40;99.90;;;;;;5054653;28;20389;-79
2023/12/06 03:35:33;;;;;;;28.55;16.92;;;1.40;99.90;;;;;;5053266;28;20500;-79
2023/12/06 03:37:59;;;;;;;26.90;17.77;;;1.40;99.90;;;;;;5035446;28;20083;-79
2023/12/06 03:40:24;;;;;;;24.50;16.85;;;1.40;99.90;;;;;;5035444;28;20040;-79
2023/12/06 03:42:50;;;;;;;25.23;16.73;;;1.40;99.90;;;;;;5037842;28;20523;-79
2023/12/06 03:45:16;;;;;;;22.23;14.77;;;1.40;99.90;;;;;;5035574;28;20038;-79
2023/12/06 03:47:41;;;;;;;26.00;15.43;;;1.40;99.90;;;;;;5053451;28;20095;-79
2023/12/06 03:50:07;;;;;;;27.42;17.08;;;1.40;99.90;;;;;;5070358;28;20069;-79
2023/12/06 03:52:33;;;;;;;24.20;16.10;;;1.40;99.90;;;;;;5053112;28;20087;-79
2023/12/06 03:54:59;;;;;;;23.90;15.40;;;1.40;99.90;;;;;;5037697;28;20049;-79
2023/12/06 03:57:24;;;;;;;25.77;15.68;;;1.40;99.90;;;;;;5034762;28;20219;-79
2023/12/06 03:59:50;;;;;;;23.90;15.52;;;1.40;99.90;;;;;;5054088;28;20045;-79
2023/12/06 04:02:17;;;;;;;22.92;15.23;;;1.40;99.90;;;;;;5036419;28;20481;-79
2023/12/06 04:04:43;;;;;;;24.75;16.58;;;1.40;99.90;;;;;;5054334;28;20049;-79
2023/12/06 04:07:09;;;;;;;23.98;14.93;;;1.50;99.90;;;;;;5034501;28;20033;-79
2023/12/06 04:09:34;;;;;;;24.88;16.00;;;1.40;99.90;;;;;;5037625;28;20040;-79
2023/12/06 04:12:00;;;;;;;24.20;15.88;;;1.50;99.90;;;;;;5036070;28;20481;-79
2023/12/06 04:14:26;;;;;;;23.52;16.17;;;1.40;99.90;;;;;;5052824;28;20098;-79
2023/12/06 04:16:52;;;;;;;23.73;15.07;;;1.40;99.90;;;;;;5053712;28;20068;-79
2023/12/06 04:19:18;;;;;;;25.52;16.23;;;1.40;99.90;;;;;;5034771;28;20456;-79
2023/12/06 04:21:43;;;;;;;23.15;15.55;;;1.50;99.90;;;;;;5053560;28;20037;-79
2023/12/06 04:24:09;;;;;;;23.70;16.00;;;1.50;99.90;;;;;;5035385;28;20037;-78
2023/12/06 04:26:35;;;;;;;22.92;15.65;;;1.50;99.90;;;;;;5070304;28;20094;-78
2023/12/06 04:29:00;;;;;;;23.58;15.57;;;1.50;99.90;;;;;;5051885;28;20133;-78
2023/12/06 04:31:26;;;;;;;23.83;15.13;;;1.50;99.90;;;;;;5036907;28;20059;-78
2023/12/06 04:33:51;;;;;;;26.05;16.40;;;1.50;99.90;;;;;;5051488;28;20509;-79
2023/12/06 04:36:17;;;;;;;26.63;16.08;;;1.50;99.90;;;;;;5035199;28;20112;-78
2023/12/06 04:38:43;;;;;;;25.60;15.98;;;1.50;99.90;;;;;;5052389;28;20114;-78
2023/12/06 04:41:08;;;;;;;23.25;15.07;;;1.50;99.90;;;;;;5052607;28;20037;-78
2023/12/06 04:43:34;;;;;;;21.35;14.25;;;1.50;99.90;;;;;;5051007;28;20544;-78
2023/12/06 04:46:00;;;;;;;21.67;15.70;;;1.50;99.90;;;;;;5053204;28;20052;-78
2023/12/06 04:48:25;;;;;;;21.20;14.68;;;1.50;99.90;;;;;;5051821;28;20421;-78
2023/12/06 04:50:51;;;;;;;21.98;15.15;;;1.50;99.90;;;;;;5036921;28;20037;-78
2023/12/06 04:53:17;;;;;;;24.10;15.27;;;1.50;99.90;;;;;;5035852;28;20040;-78
2023/12/06 04:55:43;;;;;;;22.25;15.05;;;1.50;99.90;;;;;;5032708;28;20033;-78
2023/12/06 04:58:09;;;;;;;25.80;15.27;;;1.50;99.90;;;;;;5046375;28;20040;-78
2023/12/06 05:00:36;;;;;;;20.67;13.57;;;1.50;99.90;;;;;;5022660;28;20053;-78
2023/12/06 05:03:02;;;;;;;21.73;14.20;;;1.50;99.90;;;;;;5035959;28;20436;-78
2023/12/06 05:05:27;;;;;;;21.50;15.00;;;1.50;99.90;;;;;;5035357;28;20037;-78
2023/12/06 05:07:55;;;;;;;19.65;13.57;;;1.50;99.90;;;;;;5035399;28;20043;-78
2023/12/06 05:10:21;;;;;;;20.55;14.00;;;1.50;99.90;;;;;;5052748;28;20055;-78
2023/12/06 05:12:48;;;;;;;19.77;13.68;;;1.50;99.90;;;;;;5050251;28;20049;-78
2023/12/06 05:15:14;;;;;;;21.02;13.60;;;1.50;99.90;;;;;;5036248;28;20095;-78
2023/12/06 05:17:40;;;;;;;20.48;14.30;;;1.50;99.90;;;;;;5050613;28;20037;-78
2023/12/06 05:20:06;;;;;;;20.17;13.50;;;1.50;99.90;;;;;;5036028;28;20043;-78
2023/12/06 05:22:33;;;;;;;21.10;13.57;;;1.50;99.90;;;;;;5051034;28;20037;-78
2023/12/06 05:24:59;;;;;;;21.10;13.70;;;1.50;99.90;;;;;;5035891;28;20128;-77
2023/12/06 05:27:25;;;;;;;20.25;14.32;;;1.50;99.90;;;;;;5033016;28;20124;-78
2023/12/06 05:29:50;;;;;;;19.25;14.00;;;1.50;99.90;;;;;;5034079;28;20040;-77
2023/12/06 05:32:16;;;;;;;21.02;13.85;;;1.50;99.90;;;;;;5035807;28;20040;-77
2023/12/06 05:34:41;;;;;;;19.40;12.60;;;1.50;99.90;;;;;;5050409;28;20052;-77
2023/12/06 05:37:07;;;;;;;21.08;12.82;;;1.50;99.90;;;;;;5033577;28;20512;-77
2023/12/06 05:39:36;;;;;;;20.33;13.77;;;1.50;99.90;;;;;;5027518;28;20505;-77
2023/12/06 05:42:01;;;;;;;19.65;13.23;;;1.50;99.90;;;;;;5035638;28;20037;-77
2023/12/06 05:44:27;;;;;;;20.35;13.98;;;1.50;99.90;;;;;;5033560;28;20070;-77
2023/12/06 05:46:53;;;;;;;19.30;12.93;;;1.50;99.90;;;;;;5034510;28;20041;-77
2023/12/06 05:49:18;;;;;;;18.85;12.70;;;1.60;99.90;;;;;;5050146;28;20080;-77
2023/12/06 05:51:44;;;;;;;19.70;12.48;;;1.60;99.90;;;;;;5035182;28;20051;-77
2023/12/06 05:54:10;;;;;;;19.23;13.00;;;1.60;99.90;;;;;;5015653;28;20383;-77
2023/12/06 05:56:35;;;;;;;18.73;13.00;;;1.60;99.90;;;;;;5030849;28;20394;-77
2023/12/06 05:59:01;;;;;;;18.00;12.50;;;1.60;99.90;;;;;;5036960;28;20507;-77
2023/12/06 06:01:27;;;;;;;19.17;12.88;;;1.60;99.90;;;;;;5032287;28;20056;-77
2023/12/06 06:03:52;;;;;;;17.52;12.45;;;1.60;99.90;;;;;;5045386;28;20091;-77
2023/12/06 06:06:18;;;;;;;19.63;13.63;;;1.60;99.90;;;;;;5015910;28;20037;-77
2023/12/06 06:08:43;;;;;;;16.95;11.85;;;1.60;99.90;;;;;;5048403;28;20527;-76
2023/12/06 06:11:09;;;;;;;18.55;12.85;;;1.60;99.90;;;;;;5033901;28;20033;-77
2023/12/06 06:13:35;;;;;;;20.05;12.55;;;1.60;99.90;;;;;;5051812;28;20033;-76
2023/12/06 06:16:00;;;;;;;17.60;12.23;;;1.60;99.90;;;;;;5049816;28;20128;-76
2023/12/06 06:18:27;;;;;;;18.52;12.50;;;1.60;99.90;;;;;;5050892;28;20055;-77
2023/12/06 06:20:54;;;;;;;17.85;12.00;;;1.60;99.90;;;;;;5049768;28;20049;-77
2023/12/06 06:23:19;;;;;;;17.98;12.18;;;1.60;99.90;;;;;;5051677;28;20045;-77
2023/12/06 06:25:45;;;;;;;18.67;12.90;;;1.60;99.90;;;;;;5033627;28;20062;-77
2023/12/06 06:28:11;;;;;;;19.27;12.45;;;1.50;99.90;;;;;;5050550;28;20513;-77
2023/12/06 06:30:37;;;;;;;18.27;12.05;;;1.60;99.90;;;;;;5050297;28;20417;-76
2023/12/06 06:33:03;;;;;;;17.48;12.38;;;1.60;99.90;;;;;;5051625;28;20045;-77
2023/12/06 06:35:28;;;;;;;17.85;12.48;;;1.60;99.90;;;;;;5033881;28;20055;-77
2023/12/06 06:37:54;;;;;;;19.25;12.60;;;1.60;99.90;;;;;;5049152;28;20036;-76
2023/12/06 06:40:22;;;;;;;20.00;12.43;;;1.60;99.90;;;;;;5034933;28;20051;-76
2023/12/06 06:42:48;;;;;;;16.90;11.70;;;1.60;99.90;;;;;;5048710;28;20037;-76
2023/12/06 06:45:13;;;;;;;18.30;11.82;;;1.60;99.90;;;;;;5052467;28;20051;-76
2023/12/06 06:47:39;;;;;;;16.92;11.63;;;1.70;99.90;;;;;;5035420;28;20048;-76
2023/12/06 06:50:05;;;;;;;19.30;13.00;;;1.70;99.90;;;;;;5038742;28;20511;-76
2023/12/06 06:52:34;;;;;;;16.20;11.88;;;1.70;99.90;;;;;;5054380;28;20041;-76
2023/12/06 06:55:00;;;;;;;18.67;13.00;;;1.60;99.90;;;;;;5038109;28;20079;-76
2023/12/06 06:57:26;;;;;;;18.58;12.77;;;1.60;99.90;;;;;;5067898;28;20525;-76
2023/12/06 06:59:51;;;;;;;19.63;12.48;;;1.70;99.90;;;;;;5034081;28;20085;-76
2023/12/06 07:02:17;;;;;;;19.10;12.52;;;1.70;99.90;;;;;;5018836;28;20120;-76
2023/12/06 07:04:46;;;;;;;17.42;12.27;;;1.70;99.90;;;;;;5047789;28;20036;-76
2023/12/06 07:07:12;;;;;;;18.30;12.20;;;1.70;99.90;;;;;;5037485;28;20041;-76
2023/12/06 07:09:37;;;;;;;18.27;13.07;;;1.60;99.90;;;;;;5054961;28;20048;-76
2023/12/06 07:12:03;;;;;;;17.75;12.18;;;1.70;99.90;;;;;;5053434;28;20044;-76
2023/12/06 07:14:29;;;;;;;19.15;12.43;;;1.70;99.90;;;;;;5053795;28;20103;-76
2023/12/06 07:16:56;;;;;;;18.95;12.32;;;1.70;99.90;;;;;;5052241;28;20041;-76
2023/12/06 07:19:22;;;;;;;18.02;12.35;;;1.60;99.90;;;;;;5044736;28;20037;-76
2023/12/06 07:21:48;;;;;;;17.25;12.25;;;1.70;99.90;;;;;;5036351;28;20127;-76
2023/12/06 07:24:13;;;;;;;18.38;11.70;;;1.70;99.90;;;;;;5054808;28;20036;-76
2023/12/06 07:26:39;;;;;;;19.02;12.52;;;1.70;99.90;;;;;;5062159;28;20033;-76
2023/12/06 07:29:05;;;;;;;18.92;12.13;;;1.70;99.90;;;;;;5016426;28;20128;-76
2023/12/06 07:31:31;;;;;;;18.27;12.70;;;1.70;99.90;;;;;;5050241;28;20040;-75
2023/12/06 07:33:57;;;;;;;16.75;11.43;;;1.70;99.90;;;;;;5031619;28;20044;-76
2023/12/06 07:36:23;;;;;;;16.05;11.88;;;1.70;99.90;;;;;;5037603;28;20086;-76
2023/12/06 07:38:49;;;;;;;16.27;12.05;;;1.70;99.90;;;;;;5026640;28;20040;-75
2023/12/06 07:41:15;;;;;;;20.30;12.07;;;1.70;99.90;;;;;;5021072;28;20044;-76
2023/12/06 07:43:40;;;;;;;15.95;10.90;;;1.70;99.90;;;;;;5020344;28;20113;-76
2023/12/06 07:46:06;;;;;;;16.30;11.32;;;1.70;99.90;;;;;;5034987;28;20052;-76
2023/12/06 07:48:33;;;;;;;15.30;10.93;;;1.70;99.90;;;;;;5033748;28;20098;-75
2023/12/06 07:51:00;;;;;;;17.52;11.57;;;1.80;99.90;;;;;;5017125;28;20041;-75
2023/12/06 07:53:26;;;;;;;17.27;11.75;;;1.70;99.90;;;;;;5035745;28;20039;-76
2023/12/06 07:55:55;;;;;;;15.88;11.27;;;1.70;99.90;;;;;;5036371;28;20480;-76
2023/12/06 07:58:22;;;;;;;19.80;13.23;;;1.70;99.90;;;;;;5035126;28;20033;-75
2023/12/06 08:00:48;;;;;;;16.40;11.10;;;1.70;99.90;;;;;;5043181;28;20047;-75
2023/12/06 08:03:14;;;;;;;16.67;11.27;;;1.70;99.90;;;;;;5033089;28;20051;-75
2023/12/06 08:05:40;;;;;;;15.75;10.82;;;1.70;99.90;;;;;;5028834;28;20064;-75
2023/12/06 08:08:06;;;;;;;17.70;11.75;;;1.70;99.90;;;;;;5034978;28;21256;-75
2023/12/06 08:10:33;;;;;;;17.05;12.25;;;1.70;99.90;;;;;;5024694;28;20041;-75
2023/12/06 08:12:59;;;;;;;16.45;11.80;;;1.70;99.90;;;;;;5018157;28;20406;-75
2023/12/06 08:15:26;;;;;;;16.20;11.50;;;1.80;99.90;;;;;;5015580;28;20493;-75
2023/12/06 08:17:52;;;;;;;16.65;11.27;;;1.80;99.90;;;;;;5024441;28;20091;-75
2023/12/06 08:20:17;;;;;;;16.63;11.25;;;1.70;99.90;;;;;;5027368;28;20040;-74
2023/12/06 08:22:43;;;;;;;15.38;10.38;;;1.70;99.90;;;;;;5031929;28;20954;-74
2023/12/06 08:25:11;;;;;;;14.75;10.55;;;1.80;99.90;;;;;;5016936;28;20041;-75
2023/12/06 08:27:37;;;;;;;16.63;10.90;;;1.80;99.90;;;;;;5033079;28;20508;-75
2023/12/06 08:30:03;;;;;;;17.08;12.10;;;1.80;99.90;;;;;;5014251;28;20040;-74
2023/12/06 08:32:29;;;;;;;15.57;11.13;;;1.80;99.90;;;;;;5035999;28;20497;-74
2023/12/06 08:34:56;;;;;;;16.83;11.05;;;1.80;99.90;;;;;;5030063;28;20080;-75
2023/12/06 08:37:21;;;;;;;15.52;10.90;;;1.80;99.90;;;;;;5022939;28;20240;-75
2023/12/06 08:39:47;;;;;;;16.63;11.50;;;1.80;99.90;;;;;;5044640;28;20033;-75
2023/12/06 08:42:14;;;;;;;16.05;11.57;;;1.80;99.90;;;;;;5033023;28;20071;-75
2023/12/06 08:44:43;;;;;;;18.45;11.27;;;1.80;99.90;;;;;;5025213;28;20067;-75
2023/12/06 08:47:10;;;;;;;15.25;10.80;;;1.80;99.90;;;;;;5031431;28;20044;-75
2023/12/06 08:49:37;;;;;;;16.67;11.95;;;1.80;99.90;;;;;;5030522;28;20681;-75
2023/12/06 08:52:03;;;;;;;16.67;11.73;;;1.80;99.90;;;;;;5010787;28;20045;-75
2023/12/06 08:54:29;;;;;;;16.33;10.55;;;1.80;99.90;;;;;;5010525;28;20045;-75
2023/12/06 08:56:54;;;;;;;15.07;11.50;;;1.80;99.90;;;;;;5035176;28;20086;-75
2023/12/06 08:59:20;;;;;;;15.35;11.20;;;1.80;99.90;;;;;;5038034;28;20049;-75
2023/12/06 09:01:45;;;;;;;15.82;10.88;;;1.80;99.90;;;;;;5018414;28;20127;-75
2023/12/06 09:04:11;;;;;;;16.08;11.35;;;1.80;99.90;;;;;;5023355;28;20044;-75
2023/12/06 09:06:37;;;;;;;16.52;11.35;;;1.80;99.90;;;;;;5011812;28;20677;-74
2023/12/06 09:09:04;;;;;;;15.55;10.85;;;1.80;99.90;;;;;;5030930;28;20055;-74
2023/12/06 09:11:30;;;;;;;15.57;10.23;;;2.00;99.90;;;;;;5029946;28;20087;-74
2023/12/06 09:13:56;;;;;;;17.10;11.32;;;1.90;99.90;;;;;;5010696;28;20128;-74
2023/12/06 09:16:22;;;;;;;15.68;10.80;;;1.90;99.90;;;;;;5033298;28;20371;-74
2023/12/06 09:18:47;;;;;;;16.45;11.45;;;1.90;99.90;;;;;;5016994;28;20103;-74
2023/12/06 09:21:16;;;;;;;16.33;11.32;;;1.90;99.90;;;;;;5011901;28;20041;-74
2023/12/06 09:23:42;;;;;;;19.08;12.25;;;1.90;99.90;;;;;;5034507;28;20461;-74
2023/12/06 09:26:09;;;;;;;14.65;10.82;;;1.90;99.90;;;;;;5032788;28;20076;-74
2023/12/06 09:28:35;;;;;;;17.95;11.63;;;1.90;99.90;;;;;;5034541;28;20075;-74
2023/12/06 09:31:01;;;;;;;17.63;10.88;;;2.00;99.90;;;;;;5035237;28;20044;-74
2023/12/06 09:33:27;;;;;;;16.08;11.75;;;2.00;99.90;;;;;;5033350;28;20117;-74
2023/12/06 09:35:52;;;;;;;15.00;10.43;;;2.00;99.90;;;;;;5035033;28;20485;-74
2023/12/06 09:38:18;;;;;;;15.75;10.98;;;2.00;99.90;;;;;;5051012;28;20083;-74
2023/12/06 09:40:44;;;;;;;15.68;10.73;;;2.00;99.90;;;;;;5051121;28;20041;-74
2023/12/06 09:43:10;;;;;;;16.73;10.93;;;2.00;99.90;;;;;;5052216;28;20037;-74
2023/12/06 09:45:37;;;;;;;16.15;11.75;;;2.10;99.90;;;;;;5032979;28;20033;-74
2023/12/06 09:48:03;;;;;;;14.93;10.88;;;2.00;99.90;;;;;;5047638;28;20401;-74
2023/12/06 09:50:30;;;;;;;16.92;10.95;;;2.10;99.90;;;;;;5049305;28;20382;-74
2023/12/06 09:52:56;;;;;;;16.25;11.07;;;2.10;99.90;;;;;;5049699;28;20052;-74
2023/12/06 09:55:26;;;;;;;15.90;10.57;;;2.10;99.90;;;;;;5036704;28;20493;-74
2023/12/06 09:57:52;;;;;;;15.60;11.00;;;2.10;99.90;;;;;;5035544;28;20041;-74
2023/12/06 10:00:19;;;;;;;15.05;10.57;;;2.10;99.90;;;;;;5050967;28;20135;-74
2023/12/06 10:02:52;;;;;;;16.10;10.57;;;2.10;99.90;;;;;;5015407;28;20049;-74
2023/12/06 10:05:17;;;;;;;18.90;10.73;;;2.20;99.90;;;;;;5031589;28;20152;-74
2023/12/06 10:07:44;;;;;;;15.52;10.20;;;2.20;99.90;;;;;;5038465;28;20548;-74
2023/12/06 10:10:16;;;;;;;14.02;10.27;;;2.20;99.90;;;;;;5051031;28;20383;-74
2023/12/06 10:12:50;;;;;;;13.85;9.63;;;2.20;99.90;;;;;;5034882;28;20041;-74
2023/12/06 10:15:17;;;;;;;14.68;10.23;;;2.20;99.90;;;;;;5046912;28;20037;-74
2023/12/06 10:17:42;;;;;;;13.52;9.02;;;2.20;99.90;;;;;;5043236;28;20129;-74
2023/12/06 10:20:08;;;;;;;14.75;10.23;;;2.20;99.90;;;;;;5051178;28;20128;-74
2023/12/06 10:22:35;;;;;;;13.27;9.30;;;2.30;99.90;;;;;;5055998;28;20041;-74
2023/12/06 10:25:02;;;;;;;15.93;9.77;;;2.30;99.90;;;;;;5048321;28;20482;-74
2023/12/06 10:27:30;;;;;;;17.33;10.00;;;2.40;99.90;;;;;;5039124;28;20083;-74
2023/12/06 10:29:55;;;;;;;13.90;10.13;;;2.40;99.90;;;;;;5039741;28;20029;-75
2023/12/06 10:32:22;;;;;;;13.43;9.95;;;2.40;99.90;;;;;;5038391;28;20443;-75
2023/12/06 10:34:49;;;;;;;16.65;9.38;;;2.30;99.90;;;;;;5057571;28;20119;-75
2023/12/06 10:37:19;;;;;;;14.02;9.60;;;2.40;99.90;;;;;;5025777;28;20037;-75
2023/12/06 10:39:48;;;;;;;15.63;9.88;;;2.40;99.90;;;;;;5027624;28;20041;-75
2023/12/06 10:42:18;;;;;;;16.45;9.57;;;2.40;99.90;;;;;;5039180;28;20155;-75
2023/12/06 10:44:44;;;;;;;17.00;9.30;;;2.40;99.90;;;;;;5042895;28;20044;-75
2023/12/06 10:47:12;;;;;;;17.77;10.20;;;2.40;99.90;;;;;;5048166;28;20037;-75
2023/12/06 10:49:38;;;;;;;15.25;10.90;;;2.40;99.90;;;;;;5065427;28;20066;-75
2023/12/06 10:52:05;;;;;;;14.35;9.52;;;2.40;99.90;;;;;;5051088;28;20841;-74
2023/12/06 10:54:30;;;;;;;14.30;10.10;;;2.50;99.90;;;;;;5058015;28;20048;-74
2023/12/06 10:56:56;;;;;;;13.23;8.85;;;2.50;99.90;;;;;;5040938;28;20037;-74
2023/12/06 10:59:25;;;;;;;14.48;10.13;;;2.40;99.90;;;;;;5057542;28;20051;-74
2023/12/06 11:01:57;;;;;;;15.45;9.93;;;2.50;99.90;;;;;;5040135;28;20041;-74
2023/12/06 11:04:25;;;;;;;16.25;10.23;;;2.50;99.90;;;;;;5041220;28;20400;-74
2023/12/06 11:07:15;;;;;;;15.30;9.77;;;2.50;99.90;;;;;;5018223;28;20044;-74
2023/12/06 11:09:47;;;;;;;15.40;10.07;;;2.50;99.90;;;;;;5041131;28;20037;-74
2023/12/06 11:12:28;;;;;;;15.35;10.60;;;2.50;99.90;;;;;;5036566;28;20068;-74
2023/12/06 11:15:05;;;;;;;17.55;10.82;;;2.60;99.90;;;;;;5026216;28;20052;-73
2023/12/06 11:17:44;;;;;;;15.70;10.27;;;2.60;99.90;;;;;;5041041;28;20045;-73
2023/12/06 11:20:10;;;;;;;14.38;10.25;;;2.60;99.90;;;;;;5036531;28;20041;-74
2023/12/06 11:22:38;;;;;;;14.85;9.88;;;2.60;99.90;;;;;;5056080;28;20086;-73
2023/12/06 11:25:04;;;;;;;17.65;10.60;;;2.60;99.90;;;;;;5044726;28;20055;-73
2023/12/06 11:27:30;;;;;;;16.35;10.35;;;2.60;99.90;;;;;;5073080;28;20095;-73
2023/12/06 11:29:56;;;;;;;13.98;10.02;;;2.70;99.90;;;;;;5039658;28;20037;-73
2023/12/06 11:32:21;;;;;;;15.95;10.55;;;2.70;99.90;;;;;;5054189;28;20072;-73
2023/12/06 11:34:58;;;;;;;17.25;11.27;;;2.70;99.90;;;;;;5038747;28;20123;-74
2023/12/06 11:37:23;;;;;;;14.93;10.38;;;2.70;99.90;;;;;;5054279;28;20036;-73
2023/12/06 11:40:17;;;;;;;13.82;9.52;;;2.70;99.90;;;;;;5039208;28;20120;-73
2023/12/06 11:42:51;;;;;;;12.95;9.57;;;2.70;99.90;;;;;;5037117;28;20033;-73
2023/12/06 11:45:30;;;;;;;16.02;10.80;;;2.70;99.90;;;;;;5052353;28;20041;-72
2023/12/06 11:48:01;;;;;;;16.50;11.27;;;2.70;99.90;;;;;;5035558;28;20037;-73
2023/12/06 11:50:27;;;;;;;16.33;10.75;;;2.70;99.90;;;;;;5034349;28;20041;-73
2023/12/06 11:52:54;;;;;;;17.20;10.70;;;2.70;99.90;;;;;;5053776;28;20409;-73
2023/12/06 11:55:21;;;;;;;16.65;10.88;;;2.80;99.90;;;;;;5046123;28;20186;-73
2023/12/06 11:58:22;;;;;;;14.90;10.63;;;2.70;99.90;;;;;;5053790;28;20091;-73
2023/12/06 12:00:51;;;;;;;16.98;10.93;;;2.80;99.90;;;;;;5023351;28;20449;-73
2023/12/06 12:03:17;;;;;;;15.82;10.80;;;2.80;99.90;;;;;;5018645;28;20088;-72
2023/12/06 12:05:44;;;;;;;15.68;9.98;;;2.80;99.90;;;;;;5043854;28;20072;-72
2023/12/06 12:08:13;;;;;;;14.48;10.55;;;2.80;99.90;;;;;;5037047;28;20090;-73
2023/12/06 12:10:40;;;;;;;13.45;9.88;;;2.80;99.90;;;;;;5035947;28;20041;-73
2023/12/06 12:13:19;;;;;;;15.82;10.68;;;2.90;99.90;;;;;;5029915;28;20033;-72
2023/12/06 12:15:52;;;;;;;16.80;10.65;;;2.90;99.90;;;;;;5052448;28;20063;-73
2023/12/06 12:18:19;;;;;;;16.80;10.43;;;2.90;99.90;;;;;;5052046;28;20047;-72
2023/12/06 12:20:44;;;;;;;14.20;9.98;;;2.80;99.90;;;;;;5051700;28;20532;-73
2023/12/06 12:23:11;;;;;;;14.70;9.60;;;2.90;99.90;;;;;;5018431;28;20077;-72
2023/12/06 12:25:44;;;;;;;17.58;10.23;;;2.90;99.90;;;;;;5038227;28;20044;-72
2023/12/06 12:28:09;;;;;;;16.20;11.00;;;2.90;99.90;;;;;;5051562;28;20068;-72
2023/12/06 12:30:36;;;;;;;14.93;10.52;;;2.80;99.90;;;;;;5043020;28;20038;-73
2023/12/06 12:33:03;;;;;;;14.77;9.75;;;2.90;99.90;;;;;;5034501;28;20048;-72
2023/12/06 12:35:29;;;;;;;15.43;10.45;;;2.90;99.90;;;;;;5035606;28;20440;-73